KNSE/NSE METAR and TAF weather

Enter ICAO airport designator
Station Type Date Time Source
KNSE METAR 2020/07/06 23:56 UTC NOAA

KNSE 062356Z 27003KT 10SM FEW025 SCT055 SCT100 BKN250 25/23 A2993 RMK AO2 RAE14 SLP121 T2 SET 6//// T02500233 10289 20239 51002 PNO $


Station Type Date Time Source
KNSE Decoded METAR 2020/07/06 23:56 UTC NOAA

MILTON WHITING FIELD (NORTH), FL, United States (KNSE) 30-44N 87-01W 60M
Jul 06, 2020 - 07:56 PM EDT / 2020.07.06 2356 UTC
Wind: from the W (270 degrees) at 3 MPH (3 KT):0
Visibility: 10 mile(s):0
Sky conditions: mostly cloudy
Temperature: 77.0 F (25.0 C)
Dew Point: 73.9 F (23.3 C)
Relative Humidity: 90%
Pressure (altimeter): 29.93 in. Hg (1013 hPa)
Pressure tendency: 0.01 inches (0.2 hPa) higher than three hours ago
ob: KNSE 062356Z 27003KT 10SM FEW025 SCT055 SCT100 BKN250 25/23 A2993 RMK AO2 RAE14 SLP121 T2 SET 6//// T02500233 10289 20239 51002 PNO
cycle: 0

Station Type Date Time Source
KNSE TAF 2020/07/06 23:03 UTC NOAA

TAF KNSE 0623/0723 VRB06KT 4800 SHRA VCTS SCT020CB BKN030 OVC040 QNH2992INS
TEMPO 0623/0701 VRB15G25KT 8000 -TSRA SCT015 BKN050CB BKN110 OVC150
BECMG 0704/0707 VRB06KT 9999 BKN030 BKN060 QNH2995INS
BECMG 0707/0709 27008KT 6000 SHRA VCTS SCT020CB BKN030 OVC040 QNH2990INS
TEMPO 0716/0722 VRB15G25KT 3200 VCTS BKN020CB OVC030 AUTOMATED SENSOR METWATCH 0704 TIL 0711 T23/0711Z T31/0720Z FN00216

Example: see airport list